sensor_id;sensor_type;location;lat;lon;timestamp;P1;durP1;ratioP1;P2;durP2;ratioP2
813;SDS011;389;48.710;9.392;2023-05-10T00:00:16;3.73;;;2.20;;
813;SDS011;389;48.710;9.392;2023-05-10T00:02:42;2.43;;;2.23;;
813;SDS011;389;48.710;9.392;2023-05-10T00:05:07;2.20;;;1.97;;
813;SDS011;389;48.710;9.392;2023-05-10T00:07:33;2.50;;;2.30;;
813;SDS011;389;48.710;9.392;2023-05-10T00:09:59;2.60;;;2.40;;
813;SDS011;389;48.710;9.392;2023-05-10T00:12:24;2.30;;;2.10;;
813;SDS011;389;48.710;9.392;2023-05-10T00:14:50;2.30;;;2.10;;
813;SDS011;389;48.710;9.392;2023-05-10T00:17:15;2.53;;;2.33;;
813;SDS011;389;48.710;9.392;2023-05-10T00:19:41;2.17;;;1.97;;
813;SDS011;389;48.710;9.392;2023-05-10T00:22:06;2.37;;;2.17;;
813;SDS011;389;48.710;9.392;2023-05-10T00:24:32;3.70;;;2.40;;
813;SDS011;389;48.710;9.392;2023-05-10T00:26:57;2.60;;;2.40;;
813;SDS011;389;48.710;9.392;2023-05-10T00:29:25;5.70;;;2.13;;
813;SDS011;389;48.710;9.392;2023-05-10T00:31:52;2.33;;;2.00;;
813;SDS011;389;48.710;9.392;2023-05-10T00:34:18;3.00;;;2.40;;
813;SDS011;389;48.710;9.392;2023-05-10T00:36:44;2.60;;;1.97;;
813;SDS011;389;48.710;9.392;2023-05-10T00:39:09;2.43;;;2.23;;
813;SDS011;389;48.710;9.392;2023-05-10T00:41:35;2.80;;;2.03;;
813;SDS011;389;48.710;9.392;2023-05-10T00:44:00;1.80;;;1.70;;
813;SDS011;389;48.710;9.392;2023-05-10T00:46:27;2.57;;;1.20;;
813;SDS011;389;48.710;9.392;2023-05-10T00:48:53;1.60;;;1.50;;
813;SDS011;389;48.710;9.392;2023-05-10T00:51:18;1.70;;;1.60;;
813;SDS011;389;48.710;9.392;2023-05-10T00:53:45;1.40;;;1.30;;
813;SDS011;389;48.710;9.392;2023-05-10T00:56:11;1.30;;;1.20;;
813;SDS011;389;48.710;9.392;2023-05-10T00:58:38;0.97;;;0.97;;
813;SDS011;389;48.710;9.392;2023-05-10T01:01:07;0.97;;;0.93;;
813;SDS011;389;48.710;9.392;2023-05-10T01:03:34;1.00;;;1.00;;
813;SDS011;389;48.710;9.392;2023-05-10T01:06:00;2.50;;;1.10;;
813;SDS011;389;48.710;9.392;2023-05-10T01:08:25;1.17;;;1.00;;
813;SDS011;389;48.710;9.392;2023-05-10T01:10:51;1.40;;;1.30;;
813;SDS011;389;48.710;9.392;2023-05-10T01:13:18;1.00;;;1.00;;
813;SDS011;389;48.710;9.392;2023-05-10T01:16:10;1.27;;;1.10;;
813;SDS011;389;48.710;9.392;2023-05-10T01:18:39;1.00;;;1.00;;
813;SDS011;389;48.710;9.392;2023-05-10T01:29:18;1.17;;;0.97;;
813;SDS011;389;48.710;9.392;2023-05-10T01:34:34;0.70;;;0.70;;
813;SDS011;389;48.710;9.392;2023-05-10T01:37:07;2.27;;;0.80;;
813;SDS011;389;48.710;9.392;2023-05-10T01:39:54;2.13;;;0.83;;
813;SDS011;389;48.710;9.392;2023-05-10T01:42:25;0.70;;;0.70;;
813;SDS011;389;48.710;9.392;2023-05-10T01:45:02;2.90;;;0.70;;
813;SDS011;389;48.710;9.392;2023-05-10T01:47:38;1.57;;;0.77;;
813;SDS011;389;48.710;9.392;2023-05-10T01:50:09;4.63;;;0.80;;
813;SDS011;389;48.710;9.392;2023-05-10T01:52:44;1.57;;;1.03;;
813;SDS011;389;48.710;9.392;2023-05-10T01:55:20;0.60;;;0.60;;
813;SDS011;389;48.710;9.392;2023-05-10T01:57:48;2.20;;;0.60;;
813;SDS011;389;48.710;9.392;2023-05-10T02:00:19;1.93;;;0.77;;
813;SDS011;389;48.710;9.392;2023-05-10T02:02:46;1.77;;;0.67;;
813;SDS011;389;48.710;9.392;2023-05-10T02:05:14;0.53;;;0.53;;
813;SDS011;389;48.710;9.392;2023-05-10T02:07:41;0.60;;;0.50;;
813;SDS011;389;48.710;9.392;2023-05-10T02:10:07;0.60;;;0.50;;
813;SDS011;389;48.710;9.392;2023-05-10T02:12:36;2.27;;;0.50;;
813;SDS011;389;48.710;9.392;2023-05-10T02:15:04;0.80;;;0.80;;
813;SDS011;389;48.710;9.392;2023-05-10T02:17:32;0.57;;;0.57;;
813;SDS011;389;48.710;9.392;2023-05-10T02:19:58;2.10;;;0.60;;
813;SDS011;389;48.710;9.392;2023-05-10T02:22:26;0.50;;;0.47;;
813;SDS011;389;48.710;9.392;2023-05-10T02:24:53;0.90;;;0.67;;
813;SDS011;389;48.710;9.392;2023-05-10T02:29:52;0.90;;;0.43;;
813;SDS011;389;48.710;9.392;2023-05-10T02:32:18;0.50;;;0.50;;
813;SDS011;389;48.710;9.392;2023-05-10T02:34:46;0.50;;;0.50;;
813;SDS011;389;48.710;9.392;2023-05-10T02:37:16;2.30;;;0.50;;
813;SDS011;389;48.710;9.392;2023-05-10T02:39:44;1.43;;;0.50;;
813;SDS011;389;48.710;9.392;2023-05-10T02:42:11;1.50;;;0.60;;
813;SDS011;389;48.710;9.392;2023-05-10T02:44:40;1.53;;;0.50;;
813;SDS011;389;48.710;9.392;2023-05-10T02:47:07;2.60;;;0.40;;
813;SDS011;389;48.710;9.392;2023-05-10T02:49:33;0.40;;;0.40;;
813;SDS011;389;48.710;9.392;2023-05-10T02:52:00;0.90;;;0.50;;
813;SDS011;389;48.710;9.392;2023-05-10T02:54:29;0.50;;;0.40;;
813;SDS011;389;48.710;9.392;2023-05-10T02:56:58;0.50;;;0.50;;
813;SDS011;389;48.710;9.392;2023-05-10T02:59:26;1.90;;;0.53;;
813;SDS011;389;48.710;9.392;2023-05-10T03:01:52;1.93;;;0.63;;
813;SDS011;389;48.710;9.392;2023-05-10T03:04:17;0.50;;;0.43;;
813;SDS011;389;48.710;9.392;2023-05-10T03:06:43;0.50;;;0.50;;
813;SDS011;389;48.710;9.392;2023-05-10T03:09:09;1.27;;;0.60;;
813;SDS011;389;48.710;9.392;2023-05-10T03:17:28;0.93;;;0.47;;
813;SDS011;389;48.710;9.392;2023-05-10T03:20:06;2.70;;;0.57;;
813;SDS011;389;48.710;9.392;2023-05-10T03:22:41;0.70;;;0.70;;
813;SDS011;389;48.710;9.392;2023-05-10T03:25:12;0.73;;;0.70;;
813;SDS011;389;48.710;9.392;2023-05-10T03:27:41;0.73;;;0.70;;
813;SDS011;389;48.710;9.392;2023-05-10T03:30:10;0.63;;;0.63;;
813;SDS011;389;48.710;9.392;2023-05-10T03:32:37;2.00;;;0.63;;
813;SDS011;389;48.710;9.392;2023-05-10T03:35:07;0.60;;;0.60;;
813;SDS011;389;48.710;9.392;2023-05-10T03:37:33;0.63;;;0.63;;
813;SDS011;389;48.710;9.392;2023-05-10T03:39:59;1.73;;;1.00;;
813;SDS011;389;48.710;9.392;2023-05-10T03:42:25;1.90;;;0.60;;
813;SDS011;389;48.710;9.392;2023-05-10T03:44:51;1.50;;;1.27;;
813;SDS011;389;48.710;9.392;2023-05-10T03:47:16;0.50;;;0.50;;
813;SDS011;389;48.710;9.392;2023-05-10T03:49:42;0.90;;;0.90;;
813;SDS011;389;48.710;9.392;2023-05-10T03:52:08;0.60;;;0.60;;
813;SDS011;389;48.710;9.392;2023-05-10T03:54:33;3.50;;;0.83;;
813;SDS011;389;48.710;9.392;2023-05-10T03:56:59;0.90;;;0.90;;
813;SDS011;389;48.710;9.392;2023-05-10T03:59:25;0.70;;;0.70;;
813;SDS011;389;48.710;9.392;2023-05-10T04:01:51;0.90;;;0.90;;
813;SDS011;389;48.710;9.392;2023-05-10T04:04:17;1.00;;;0.90;;
813;SDS011;389;48.710;9.392;2023-05-10T04:06:43;1.27;;;0.70;;
813;SDS011;389;48.710;9.392;2023-05-10T04:09:09;1.30;;;1.20;;
813;SDS011;389;48.710;9.392;2023-05-10T04:11:35;1.00;;;0.80;;
813;SDS011;389;48.710;9.392;2023-05-10T04:14:01;0.70;;;0.70;;
813;SDS011;389;48.710;9.392;2023-05-10T04:16:27;0.70;;;0.70;;
813;SDS011;389;48.710;9.392;2023-05-10T04:18:52;1.43;;;0.83;;
813;SDS011;389;48.710;9.392;2023-05-10T04:21:18;0.93;;;0.90;;
813;SDS011;389;48.710;9.392;2023-05-10T04:23:43;1.67;;;1.50;;
813;SDS011;389;48.710;9.392;2023-05-10T04:26:09;1.53;;;1.00;;
813;SDS011;389;48.710;9.392;2023-05-10T04:28:35;0.80;;;0.80;;
813;SDS011;389;48.710;9.392;2023-05-10T04:31:04;3.73;;;1.10;;
813;SDS011;389;48.710;9.392;2023-05-10T04:33:30;1.10;;;1.00;;
813;SDS011;389;48.710;9.392;2023-05-10T04:35:56;1.20;;;1.10;;
813;SDS011;389;48.710;9.392;2023-05-10T04:38:22;2.60;;;0.90;;
813;SDS011;389;48.710;9.392;2023-05-10T04:40:47;0.90;;;0.90;;
813;SDS011;389;48.710;9.392;2023-05-10T04:43:13;1.90;;;1.50;;
813;SDS011;389;48.710;9.392;2023-05-10T04:45:38;1.13;;;1.03;;
813;SDS011;389;48.710;9.392;2023-05-10T04:48:04;1.30;;;1.20;;
813;SDS011;389;48.710;9.392;2023-05-10T04:50:30;1.50;;;0.97;;
813;SDS011;389;48.710;9.392;2023-05-10T04:52:56;1.90;;;1.00;;
813;SDS011;389;48.710;9.392;2023-05-10T04:55:22;4.60;;;1.40;;
813;SDS011;389;48.710;9.392;2023-05-10T04:57:47;1.73;;;1.10;;
813;SDS011;389;48.710;9.392;2023-05-10T05:00:13;1.90;;;1.10;;
813;SDS011;389;48.710;9.392;2023-05-10T05:02:42;5.30;;;1.30;;
813;SDS011;389;48.710;9.392;2023-05-10T05:05:08;1.40;;;1.30;;
813;SDS011;389;48.710;9.392;2023-05-10T05:07:34;1.23;;;1.13;;
813;SDS011;389;48.710;9.392;2023-05-10T05:10:00;1.20;;;1.10;;
813;SDS011;389;48.710;9.392;2023-05-10T05:12:25;1.20;;;1.20;;
813;SDS011;389;48.710;9.392;2023-05-10T05:14:51;1.23;;;1.00;;
813;SDS011;389;48.710;9.392;2023-05-10T05:17:16;1.40;;;1.30;;
813;SDS011;389;48.710;9.392;2023-05-10T05:19:42;1.00;;;1.00;;
813;SDS011;389;48.710;9.392;2023-05-10T05:22:07;1.10;;;1.10;;
813;SDS011;389;48.710;9.392;2023-05-10T05:24:36;2.87;;;1.20;;
813;SDS011;389;48.710;9.392;2023-05-10T05:27:03;2.03;;;1.83;;
813;SDS011;389;48.710;9.392;2023-05-10T05:29:28;0.93;;;0.90;;
813;SDS011;389;48.710;9.392;2023-05-10T05:31:54;1.47;;;1.20;;
813;SDS011;389;48.710;9.392;2023-05-10T05:34:20;1.27;;;1.17;;
813;SDS011;389;48.710;9.392;2023-05-10T05:36:46;1.00;;;1.00;;
813;SDS011;389;48.710;9.392;2023-05-10T05:39:12;1.23;;;1.00;;
813;SDS011;389;48.710;9.392;2023-05-10T05:41:38;1.10;;;0.77;;
813;SDS011;389;48.710;9.392;2023-05-10T05:44:03;1.00;;;0.93;;
813;SDS011;389;48.710;9.392;2023-05-10T05:46:29;1.30;;;1.20;;
813;SDS011;389;48.710;9.392;2023-05-10T05:48:54;1.20;;;1.20;;
813;SDS011;389;48.710;9.392;2023-05-10T05:51:20;1.17;;;1.07;;
813;SDS011;389;48.710;9.392;2023-05-10T05:53:46;0.87;;;0.80;;
813;SDS011;389;48.710;9.392;2023-05-10T05:56:11;2.87;;;0.93;;
813;SDS011;389;48.710;9.392;2023-05-10T05:58:37;1.63;;;1.50;;
813;SDS011;389;48.710;9.392;2023-05-10T06:01:03;1.20;;;1.10;;
813;SDS011;389;48.710;9.392;2023-05-10T06:03:28;1.13;;;1.10;;
813;SDS011;389;48.710;9.392;2023-05-10T06:05:54;0.90;;;0.90;;
813;SDS011;389;48.710;9.392;2023-05-10T06:08:19;1.23;;;1.13;;
813;SDS011;389;48.710;9.392;2023-05-10T06:10:45;1.30;;;1.20;;
813;SDS011;389;48.710;9.392;2023-05-10T06:13:11;1.00;;;1.00;;
813;SDS011;389;48.710;9.392;2023-05-10T06:15:36;2.50;;;1.10;;
813;SDS011;389;48.710;9.392;2023-05-10T06:18:03;1.23;;;1.13;;
813;SDS011;389;48.710;9.392;2023-05-10T06:20:28;1.20;;;1.10;;
813;SDS011;389;48.710;9.392;2023-05-10T06:22:56;1.23;;;1.13;;
813;SDS011;389;48.710;9.392;2023-05-10T06:25:22;1.40;;;1.30;;
813;SDS011;389;48.710;9.392;2023-05-10T06:27:48;1.07;;;1.00;;
813;SDS011;389;48.710;9.392;2023-05-10T06:30:14;2.30;;;1.10;;
813;SDS011;389;48.710;9.392;2023-05-10T06:32:42;1.20;;;1.10;;
813;SDS011;389;48.710;9.392;2023-05-10T06:35:08;1.10;;;1.00;;
813;SDS011;389;48.710;9.392;2023-05-10T06:37:34;1.37;;;0.90;;
813;SDS011;389;48.710;9.392;2023-05-10T06:40:00;1.10;;;1.00;;
813;SDS011;389;48.710;9.392;2023-05-10T06:42:26;1.57;;;1.33;;
813;SDS011;389;48.710;9.392;2023-05-10T06:44:52;1.47;;;1.20;;
813;SDS011;389;48.710;9.392;2023-05-10T06:47:18;1.00;;;1.00;;
813;SDS011;389;48.710;9.392;2023-05-10T06:49:43;1.00;;;1.00;;
813;SDS011;389;48.710;9.392;2023-05-10T06:52:09;1.27;;;1.13;;
813;SDS011;389;48.710;9.392;2023-05-10T06:54:34;1.53;;;1.20;;
813;SDS011;389;48.710;9.392;2023-05-10T06:57:00;1.40;;;1.30;;
813;SDS011;389;48.710;9.392;2023-05-10T06:59:27;1.27;;;1.17;;
813;SDS011;389;48.710;9.392;2023-05-10T07:01:53;1.30;;;1.20;;
813;SDS011;389;48.710;9.392;2023-05-10T07:04:20;2.93;;;1.10;;
813;SDS011;389;48.710;9.392;2023-05-10T07:06:45;1.40;;;1.27;;
813;SDS011;389;48.710;9.392;2023-05-10T07:09:11;1.63;;;1.40;;
813;SDS011;389;48.710;9.392;2023-05-10T07:11:38;3.30;;;1.00;;
813;SDS011;389;48.710;9.392;2023-05-10T07:14:03;2.40;;;1.50;;
813;SDS011;389;48.710;9.392;2023-05-10T07:16:30;1.40;;;1.30;;
813;SDS011;389;48.710;9.392;2023-05-10T07:18:55;1.30;;;1.30;;
813;SDS011;389;48.710;9.392;2023-05-10T07:21:21;3.13;;;1.30;;
813;SDS011;389;48.710;9.392;2023-05-10T07:23:48;1.40;;;1.30;;
813;SDS011;389;48.710;9.392;2023-05-10T07:26:14;1.43;;;1.20;;
813;SDS011;389;48.710;9.392;2023-05-10T07:28:40;2.03;;;1.30;;
813;SDS011;389;48.710;9.392;2023-05-10T07:31:06;3.37;;;1.30;;
813;SDS011;389;48.710;9.392;2023-05-10T07:33:32;1.37;;;1.27;;
813;SDS011;389;48.710;9.392;2023-05-10T07:35:57;1.03;;;1.03;;
813;SDS011;389;48.710;9.392;2023-05-10T07:38:23;1.40;;;1.30;;
813;SDS011;389;48.710;9.392;2023-05-10T07:40:48;1.10;;;1.10;;
813;SDS011;389;48.710;9.392;2023-05-10T07:43:14;2.07;;;1.50;;
813;SDS011;389;48.710;9.392;2023-05-10T07:45:39;1.47;;;1.20;;
813;SDS011;389;48.710;9.392;2023-05-10T07:48:05;0.80;;;0.80;;
813;SDS011;389;48.710;9.392;2023-05-10T07:50:30;0.90;;;0.90;;
813;SDS011;389;48.710;9.392;2023-05-10T07:52:56;1.20;;;1.10;;
813;SDS011;389;48.710;9.392;2023-05-10T07:55:22;1.70;;;1.00;;
813;SDS011;389;48.710;9.392;2023-05-10T07:57:47;1.73;;;1.30;;
813;SDS011;389;48.710;9.392;2023-05-10T08:00:13;1.33;;;1.23;;
813;SDS011;389;48.710;9.392;2023-05-10T08:02:43;1.43;;;1.20;;
813;SDS011;389;48.710;9.392;2023-05-10T08:05:08;1.20;;;1.10;;
813;SDS011;389;48.710;9.392;2023-05-10T08:07:34;1.03;;;1.03;;
813;SDS011;389;48.710;9.392;2023-05-10T08:10:00;1.17;;;1.17;;
813;SDS011;389;48.710;9.392;2023-05-10T08:12:26;1.20;;;1.10;;
813;SDS011;389;48.710;9.392;2023-05-10T08:14:52;1.53;;;1.30;;
813;SDS011;389;48.710;9.392;2023-05-10T08:17:17;1.27;;;1.10;;
813;SDS011;389;48.710;9.392;2023-05-10T08:19:43;1.43;;;1.27;;
813;SDS011;389;48.710;9.392;2023-05-10T08:22:09;1.50;;;1.40;;
813;SDS011;389;48.710;9.392;2023-05-10T08:24:35;2.40;;;1.00;;
813;SDS011;389;48.710;9.392;2023-05-10T08:27:03;1.23;;;1.00;;
813;SDS011;389;48.710;9.392;2023-05-10T08:29:29;0.93;;;0.90;;
813;SDS011;389;48.710;9.392;2023-05-10T08:31:55;2.40;;;1.10;;
813;SDS011;389;48.710;9.392;2023-05-10T08:34:21;1.40;;;0.80;;
813;SDS011;389;48.710;9.392;2023-05-10T08:36:46;0.80;;;0.80;;
813;SDS011;389;48.710;9.392;2023-05-10T08:39:12;0.97;;;0.90;;
813;SDS011;389;48.710;9.392;2023-05-10T08:41:38;1.53;;;0.97;;
813;SDS011;389;48.710;9.392;2023-05-10T08:44:05;1.00;;;0.90;;
813;SDS011;389;48.710;9.392;2023-05-10T08:46:35;0.80;;;0.70;;
813;SDS011;389;48.710;9.392;2023-05-10T08:49:04;1.20;;;1.10;;
813;SDS011;389;48.710;9.392;2023-05-10T08:51:54;1.23;;;1.10;;
813;SDS011;389;48.710;9.392;2023-05-10T08:54:27;2.13;;;1.00;;
813;SDS011;389;48.710;9.392;2023-05-10T08:59:29;1.20;;;0.90;;
813;SDS011;389;48.710;9.392;2023-05-10T09:01:55;0.80;;;0.80;;
813;SDS011;389;48.710;9.392;2023-05-10T09:04:23;1.27;;;0.70;;
813;SDS011;389;48.710;9.392;2023-05-10T09:06:49;2.43;;;0.80;;
813;SDS011;389;48.710;9.392;2023-05-10T09:12:17;1.50;;;0.70;;
813;SDS011;389;48.710;9.392;2023-05-10T09:14:43;0.80;;;0.80;;
813;SDS011;389;48.710;9.392;2023-05-10T09:17:10;0.90;;;0.90;;
813;SDS011;389;48.710;9.392;2023-05-10T09:22:04;1.30;;;0.93;;
813;SDS011;389;48.710;9.392;2023-05-10T09:24:30;0.87;;;0.87;;
813;SDS011;389;48.710;9.392;2023-05-10T09:26:56;0.80;;;0.80;;
813;SDS011;389;48.710;9.392;2023-05-10T09:29:22;0.70;;;0.70;;
813;SDS011;389;48.710;9.392;2023-05-10T09:31:50;0.90;;;0.90;;
813;SDS011;389;48.710;9.392;2023-05-10T09:34:21;0.80;;;0.80;;
813;SDS011;389;48.710;9.392;2023-05-10T09:36:59;3.17;;;0.90;;
813;SDS011;389;48.710;9.392;2023-05-10T09:39:39;0.90;;;0.90;;
813;SDS011;389;48.710;9.392;2023-05-10T09:47:27;1.37;;;0.90;;
813;SDS011;389;48.710;9.392;2023-05-10T09:49:53;0.83;;;0.70;;
813;SDS011;389;48.710;9.392;2023-05-10T09:52:25;1.33;;;1.23;;
813;SDS011;389;48.710;9.392;2023-05-10T09:55:01;0.80;;;0.80;;
813;SDS011;389;48.710;9.392;2023-05-10T09:57:27;0.93;;;0.80;;
813;SDS011;389;48.710;9.392;2023-05-10T09:59:53;1.57;;;0.93;;
813;SDS011;389;48.710;9.392;2023-05-10T10:02:19;0.97;;;0.80;;
813;SDS011;389;48.710;9.392;2023-05-10T10:04:45;1.37;;;1.00;;
813;SDS011;389;48.710;9.392;2023-05-10T10:07:14;1.47;;;1.00;;
813;SDS011;389;48.710;9.392;2023-05-10T10:09:39;0.80;;;0.80;;
813;SDS011;389;48.710;9.392;2023-05-10T10:12:05;0.90;;;0.77;;
813;SDS011;389;48.710;9.392;2023-05-10T10:14:31;0.80;;;0.80;;
813;SDS011;389;48.710;9.392;2023-05-10T10:16:57;0.80;;;0.70;;
813;SDS011;389;48.710;9.392;2023-05-10T10:19:25;0.93;;;0.90;;
813;SDS011;389;48.710;9.392;2023-05-10T10:21:51;1.47;;;0.80;;
813;SDS011;389;48.710;9.392;2023-05-10T10:24:16;1.20;;;1.10;;
813;SDS011;389;48.710;9.392;2023-05-10T10:26:42;0.70;;;0.70;;
813;SDS011;389;48.710;9.392;2023-05-10T10:31:57;1.33;;;1.07;;
813;SDS011;389;48.710;9.392;2023-05-10T10:34:26;2.00;;;1.00;;
813;SDS011;389;48.710;9.392;2023-05-10T10:36:53;1.20;;;0.80;;
813;SDS011;389;48.710;9.392;2023-05-10T10:39:20;1.10;;;1.00;;
813;SDS011;389;48.710;9.392;2023-05-10T10:49:49;0.90;;;0.90;;
813;SDS011;389;48.710;9.392;2023-05-10T10:52:41;1.40;;;0.80;;
813;SDS011;389;48.710;9.392;2023-05-10T11:08:07;0.87;;;0.83;;
813;SDS011;389;48.710;9.392;2023-05-10T11:10:38;0.87;;;0.87;;
813;SDS011;389;48.710;9.392;2023-05-10T11:13:05;1.60;;;0.90;;
813;SDS011;389;48.710;9.392;2023-05-10T11:15:32;0.70;;;0.70;;
813;SDS011;389;48.710;9.392;2023-05-10T11:18:01;1.00;;;0.90;;
813;SDS011;389;48.710;9.392;2023-05-10T11:20:52;0.70;;;0.70;;
813;SDS011;389;48.710;9.392;2023-05-10T11:23:21;1.50;;;1.40;;
813;SDS011;389;48.710;9.392;2023-05-10T11:25:47;2.60;;;0.80;;
813;SDS011;389;48.710;9.392;2023-05-10T11:28:14;2.73;;;0.90;;
813;SDS011;389;48.710;9.392;2023-05-10T11:30:41;1.37;;;1.27;;
813;SDS011;389;48.710;9.392;2023-05-10T11:33:09;2.83;;;1.10;;
813;SDS011;389;48.710;9.392;2023-05-10T11:35:40;1.57;;;0.90;;
813;SDS011;389;48.710;9.392;2023-05-10T11:38:09;0.90;;;0.60;;
813;SDS011;389;48.710;9.392;2023-05-10T11:40:36;0.87;;;0.67;;
813;SDS011;389;48.710;9.392;2023-05-10T11:43:02;2.00;;;0.67;;
813;SDS011;389;48.710;9.392;2023-05-10T11:45:29;2.33;;;0.70;;
813;SDS011;389;48.710;9.392;2023-05-10T11:47:57;0.80;;;0.80;;
813;SDS011;389;48.710;9.392;2023-05-10T11:50:23;0.70;;;0.70;;
813;SDS011;389;48.710;9.392;2023-05-10T11:52:55;0.90;;;0.90;;
813;SDS011;389;48.710;9.392;2023-05-10T11:55:22;1.10;;;1.00;;
813;SDS011;389;48.710;9.392;2023-05-10T11:57:51;0.80;;;0.70;;
813;SDS011;389;48.710;9.392;2023-05-10T12:00:17;2.60;;;0.63;;
813;SDS011;389;48.710;9.392;2023-05-10T12:02:43;0.70;;;0.70;;
813;SDS011;389;48.710;9.392;2023-05-10T12:05:09;1.87;;;0.80;;
813;SDS011;389;48.710;9.392;2023-05-10T12:07:35;2.77;;;0.67;;
813;SDS011;389;48.710;9.392;2023-05-10T12:10:05;3.87;;;1.10;;
813;SDS011;389;48.710;9.392;2023-05-10T12:12:35;0.90;;;0.80;;
813;SDS011;389;48.710;9.392;2023-05-10T12:15:05;1.67;;;0.93;;
813;SDS011;389;48.710;9.392;2023-05-10T12:17:36;1.43;;;1.03;;
813;SDS011;389;48.710;9.392;2023-05-10T12:20:13;1.17;;;1.07;;
813;SDS011;389;48.710;9.392;2023-05-10T12:22:40;1.67;;;0.93;;
813;SDS011;389;48.710;9.392;2023-05-10T12:25:07;1.23;;;1.13;;
813;SDS011;389;48.710;9.392;2023-05-10T12:27:33;3.33;;;0.83;;
813;SDS011;389;48.710;9.392;2023-05-10T12:29:59;1.83;;;1.10;;
813;SDS011;389;48.710;9.392;2023-05-10T12:32:37;1.80;;;1.20;;
813;SDS011;389;48.710;9.392;2023-05-10T12:35:06;1.40;;;1.00;;
813;SDS011;389;48.710;9.392;2023-05-10T12:37:33;1.23;;;1.10;;
813;SDS011;389;48.710;9.392;2023-05-10T12:40:04;1.30;;;1.03;;
813;SDS011;389;48.710;9.392;2023-05-10T12:42:30;1.60;;;1.20;;
813;SDS011;389;48.710;9.392;2023-05-10T12:44:57;1.20;;;1.03;;
813;SDS011;389;48.710;9.392;2023-05-10T12:47:22;1.47;;;0.90;;
813;SDS011;389;48.710;9.392;2023-05-10T12:49:48;1.20;;;1.10;;
813;SDS011;389;48.710;9.392;2023-05-10T12:52:13;1.60;;;0.90;;
813;SDS011;389;48.710;9.392;2023-05-10T12:54:39;2.10;;;1.10;;
813;SDS011;389;48.710;9.392;2023-05-10T12:57:05;1.00;;;0.93;;
813;SDS011;389;48.710;9.392;2023-05-10T12:59:30;1.30;;;1.00;;
813;SDS011;389;48.710;9.392;2023-05-10T13:01:56;0.90;;;0.90;;
813;SDS011;389;48.710;9.392;2023-05-10T13:04:22;1.40;;;1.20;;
813;SDS011;389;48.710;9.392;2023-05-10T13:06:48;1.80;;;1.27;;
813;SDS011;389;48.710;9.392;2023-05-10T13:09:15;1.07;;;0.90;;
813;SDS011;389;48.710;9.392;2023-05-10T13:11:40;2.30;;;1.00;;
813;SDS011;389;48.710;9.392;2023-05-10T13:14:06;1.03;;;0.83;;
813;SDS011;389;48.710;9.392;2023-05-10T13:16:32;2.13;;;1.00;;
813;SDS011;389;48.710;9.392;2023-05-10T13:18:57;1.03;;;0.80;;
813;SDS011;389;48.710;9.392;2023-05-10T13:21:23;5.20;;;1.17;;
813;SDS011;389;48.710;9.392;2023-05-10T13:23:50;1.53;;;1.20;;
813;SDS011;389;48.710;9.392;2023-05-10T13:26:16;1.30;;;1.20;;
813;SDS011;389;48.710;9.392;2023-05-10T13:28:41;1.63;;;1.20;;
813;SDS011;389;48.710;9.392;2023-05-10T13:31:07;1.57;;;1.20;;
813;SDS011;389;48.710;9.392;2023-05-10T13:33:33;1.40;;;1.30;;
813;SDS011;389;48.710;9.392;2023-05-10T13:35:58;1.60;;;1.50;;
813;SDS011;389;48.710;9.392;2023-05-10T13:38:24;3.10;;;1.40;;
813;SDS011;389;48.710;9.392;2023-05-10T13:40:49;1.47;;;1.37;;
813;SDS011;389;48.710;9.392;2023-05-10T13:43:17;2.30;;;1.77;;
813;SDS011;389;48.710;9.392;2023-05-10T13:45:43;3.00;;;1.70;;
813;SDS011;389;48.710;9.392;2023-05-10T13:48:09;1.77;;;1.43;;
813;SDS011;389;48.710;9.392;2023-05-10T13:50:34;1.60;;;1.50;;
813;SDS011;389;48.710;9.392;2023-05-10T13:53:00;1.40;;;1.30;;
813;SDS011;389;48.710;9.392;2023-05-10T13:55:25;1.43;;;1.33;;
813;SDS011;389;48.710;9.392;2023-05-10T13:57:51;1.73;;;1.23;;
813;SDS011;389;48.710;9.392;2023-05-10T14:00:17;1.87;;;1.50;;
813;SDS011;389;48.710;9.392;2023-05-10T14:02:42;1.30;;;1.20;;
813;SDS011;389;48.710;9.392;2023-05-10T14:05:08;1.53;;;1.00;;
813;SDS011;389;48.710;9.392;2023-05-10T14:07:34;1.60;;;1.30;;
813;SDS011;389;48.710;9.392;2023-05-10T14:09:59;2.00;;;1.20;;
813;SDS011;389;48.710;9.392;2023-05-10T14:12:26;2.00;;;1.50;;
813;SDS011;389;48.710;9.392;2023-05-10T14:14:52;3.30;;;1.43;;
813;SDS011;389;48.710;9.392;2023-05-10T14:17:18;1.60;;;1.50;;
813;SDS011;389;48.710;9.392;2023-05-10T14:19:44;1.63;;;1.53;;
813;SDS011;389;48.710;9.392;2023-05-10T14:22:09;1.70;;;1.60;;
813;SDS011;389;48.710;9.392;2023-05-10T14:24:35;1.33;;;1.17;;
813;SDS011;389;48.710;9.392;2023-05-10T14:27:01;1.57;;;1.10;;
813;SDS011;389;48.710;9.392;2023-05-10T14:29:26;1.87;;;1.77;;
813;SDS011;389;48.710;9.392;2023-05-10T14:31:52;2.10;;;1.40;;
813;SDS011;389;48.710;9.392;2023-05-10T14:34:18;1.67;;;1.57;;
813;SDS011;389;48.710;9.392;2023-05-10T14:36:43;1.70;;;1.43;;
813;SDS011;389;48.710;9.392;2023-05-10T14:39:09;1.87;;;1.37;;
813;SDS011;389;48.710;9.392;2023-05-10T14:41:35;2.33;;;1.60;;
813;SDS011;389;48.710;9.392;2023-05-10T14:44:00;5.03;;;1.50;;
813;SDS011;389;48.710;9.392;2023-05-10T14:46:28;2.00;;;1.40;;
813;SDS011;389;48.710;9.392;2023-05-10T14:48:54;1.17;;;1.07;;
813;SDS011;389;48.710;9.392;2023-05-10T14:51:20;3.30;;;1.70;;
813;SDS011;389;48.710;9.392;2023-05-10T14:53:47;1.40;;;1.30;;
813;SDS011;389;48.710;9.392;2023-05-10T14:56:13;2.33;;;1.60;;
813;SDS011;389;48.710;9.392;2023-05-10T14:58:39;1.70;;;1.60;;
813;SDS011;389;48.710;9.392;2023-05-10T15:01:04;1.37;;;1.27;;
813;SDS011;389;48.710;9.392;2023-05-10T15:03:30;1.20;;;1.10;;
813;SDS011;389;48.710;9.392;2023-05-10T15:05:56;2.77;;;1.40;;
813;SDS011;389;48.710;9.392;2023-05-10T15:08:22;1.40;;;1.27;;
813;SDS011;389;48.710;9.392;2023-05-10T15:10:49;1.67;;;1.10;;
813;SDS011;389;48.710;9.392;2023-05-10T15:13:15;2.03;;;1.30;;
813;SDS011;389;48.710;9.392;2023-05-10T15:15:41;2.70;;;1.50;;
813;SDS011;389;48.710;9.392;2023-05-10T15:18:08;1.00;;;1.00;;
813;SDS011;389;48.710;9.392;2023-05-10T15:20:34;2.20;;;1.40;;
813;SDS011;389;48.710;9.392;2023-05-10T15:23:00;1.50;;;1.40;;
813;SDS011;389;48.710;9.392;2023-05-10T15:25:26;1.17;;;1.00;;
813;SDS011;389;48.710;9.392;2023-05-10T15:27:53;1.27;;;1.17;;
813;SDS011;389;48.710;9.392;2023-05-10T15:30:19;1.47;;;1.10;;
813;SDS011;389;48.710;9.392;2023-05-10T15:32:45;2.80;;;1.27;;
813;SDS011;389;48.710;9.392;2023-05-10T15:35:10;2.30;;;1.17;;
813;SDS011;389;48.710;9.392;2023-05-10T15:37:37;2.47;;;1.30;;
813;SDS011;389;48.710;9.392;2023-05-10T15:40:03;1.80;;;1.17;;
813;SDS011;389;48.710;9.392;2023-05-10T15:42:29;1.33;;;1.23;;
813;SDS011;389;48.710;9.392;2023-05-10T15:44:56;1.13;;;1.03;;
813;SDS011;389;48.710;9.392;2023-05-10T15:47:22;1.30;;;1.20;;
813;SDS011;389;48.710;9.392;2023-05-10T15:49:48;2.00;;;1.03;;
813;SDS011;389;48.710;9.392;2023-05-10T15:52:14;1.33;;;1.23;;
813;SDS011;389;48.710;9.392;2023-05-10T15:54:40;1.67;;;1.40;;
813;SDS011;389;48.710;9.392;2023-05-10T15:57:06;1.43;;;1.30;;
813;SDS011;389;48.710;9.392;2023-05-10T15:59:32;1.10;;;1.00;;
813;SDS011;389;48.710;9.392;2023-05-10T16:01:59;2.50;;;1.10;;
813;SDS011;389;48.710;9.392;2023-05-10T16:04:25;1.47;;;1.33;;
813;SDS011;389;48.710;9.392;2023-05-10T16:06:51;4.57;;;1.40;;
813;SDS011;389;48.710;9.392;2023-05-10T16:09:16;4.80;;;1.37;;
813;SDS011;389;48.710;9.392;2023-05-10T16:11:42;1.53;;;1.17;;
813;SDS011;389;48.710;9.392;2023-05-10T16:14:08;1.53;;;1.33;;
813;SDS011;389;48.710;9.392;2023-05-10T16:16:34;1.60;;;1.50;;
813;SDS011;389;48.710;9.392;2023-05-10T16:18:59;1.90;;;1.30;;
813;SDS011;389;48.710;9.392;2023-05-10T16:21:27;1.80;;;1.70;;
813;SDS011;389;48.710;9.392;2023-05-10T16:23:56;1.27;;;1.17;;
813;SDS011;389;48.710;9.392;2023-05-10T16:26:22;1.23;;;1.13;;
813;SDS011;389;48.710;9.392;2023-05-10T16:28:49;1.30;;;1.20;;
813;SDS011;389;48.710;9.392;2023-05-10T16:31:15;3.70;;;1.30;;
813;SDS011;389;48.710;9.392;2023-05-10T16:33:42;3.43;;;1.43;;
813;SDS011;389;48.710;9.392;2023-05-10T16:36:08;1.67;;;1.20;;
813;SDS011;389;48.710;9.392;2023-05-10T16:38:33;2.13;;;1.40;;